createdAt,value
2018-01-07T00:01:44.650Z,6.30
2018-01-07T00:04:15.899Z,6.30
2018-01-07T00:06:43.425Z,6.40
2018-01-07T00:09:11.741Z,6.40
2018-01-07T00:11:39.258Z,6.40
2018-01-07T00:14:07.569Z,6.30
2018-01-07T00:16:35.090Z,6.30
2018-01-07T00:19:03.403Z,6.20
2018-01-07T00:21:30.926Z,6.20
2018-01-07T00:23:59.235Z,6.50
2018-01-07T00:26:26.759Z,6.40
2018-01-07T00:28:55.076Z,6.40
2018-01-07T00:31:22.598Z,6.40
2018-01-07T00:33:50.913Z,6.30
2018-01-07T00:36:18.433Z,6.30
2018-01-07T00:38:46.749Z,6.40
2018-01-07T00:41:14.275Z,6.40
2018-01-07T00:43:42.598Z,6.20
2018-01-07T00:46:10.117Z,6.20
2018-01-07T00:48:38.434Z,6.30
2018-01-07T00:51:05.960Z,6.20
2018-01-07T00:53:33.490Z,6.30
2018-01-07T00:56:01.042Z,6.30
2018-01-07T00:58:28.566Z,6.30
2018-01-07T01:00:56.115Z,6.30
2018-01-07T01:03:23.694Z,6.30
2018-01-07T01:05:51.241Z,6.30
2018-01-07T01:08:18.761Z,6.30
2018-01-07T01:10:47.076Z,6.20
2018-01-07T01:13:14.598Z,6.20
2018-01-07T01:15:42.906Z,6.30
2018-01-07T01:18:10.425Z,6.30
2018-01-07T01:20:37.969Z,6.20
2018-01-07T01:23:05.491Z,6.20
2018-01-07T01:25:33.040Z,6.20
2018-01-07T01:28:00.558Z,6.20
2018-01-07T01:30:28.106Z,6.10
2018-01-07T01:32:55.628Z,6.10
2018-01-07T01:35:23.175Z,6.10
2018-01-07T01:37:50.700Z,6.20
2018-01-07T01:40:19.009Z,6.20
2018-01-07T01:42:46.533Z,6.20
2018-01-07T01:45:14.083Z,6.20
2018-01-07T01:47:41.610Z,6.10
2018-01-07T01:50:09.134Z,6.10
2018-01-07T01:52:37.442Z,6.10
2018-01-07T01:55:04.962Z,6.10
2018-01-07T01:57:33.278Z,6.10
2018-01-07T02:00:00.807Z,6.10
2018-01-07T02:02:29.132Z,6.20
2018-01-07T02:04:56.708Z,6.20
2018-01-07T02:07:24.232Z,6.30
2018-01-07T02:09:51.750Z,6.30
2018-01-07T02:12:20.069Z,6.20
2018-01-07T02:14:47.598Z,6.20
2018-01-07T02:17:15.161Z,6.20
2018-01-07T02:19:43.451Z,6.20
2018-01-07T02:22:11.006Z,6.20
2018-01-07T02:24:38.530Z,6.30
2018-01-07T02:27:06.090Z,6.20
2018-01-07T02:29:33.615Z,6.10
2018-01-07T02:32:01.163Z,6.10
2018-01-07T02:34:28.687Z,6.10
2018-01-07T02:36:57.002Z,6.00
2018-01-07T02:39:24.527Z,6.00
2018-01-07T02:41:52.074Z,6.00
2018-01-07T02:44:19.608Z,6.10
2018-01-07T02:46:47.159Z,6.10
2018-01-07T02:49:14.682Z,6.10
2018-01-07T02:51:42.218Z,6.20
2018-01-07T02:54:10.534Z,6.20
2018-01-07T02:56:38.064Z,6.20
2018-01-07T02:59:06.387Z,6.00
2018-01-07T03:01:33.909Z,6.00
2018-01-07T03:04:01.454Z,6.00
2018-01-07T03:06:29.746Z,6.00
2018-01-07T03:08:57.297Z,6.00
2018-01-07T03:11:24.902Z,6.00
2018-01-07T03:13:52.456Z,6.10
2018-01-07T03:16:19.981Z,6.00
2018-01-07T03:18:47.529Z,6.00
2018-01-07T03:21:15.841Z,6.10
2018-01-07T03:23:43.390Z,6.00
2018-01-07T03:26:10.910Z,6.10
2018-01-07T03:28:38.462Z,6.00
2018-01-07T03:31:05.991Z,6.00
2018-01-07T03:33:33.542Z,6.00
2018-01-07T03:36:01.066Z,6.00
2018-01-07T03:38:29.386Z,6.00
2018-01-07T03:40:56.913Z,6.00
2018-01-07T03:43:24.461Z,6.00
2018-01-07T03:45:52.757Z,5.90
2018-01-07T03:48:20.314Z,5.90
2018-01-07T03:50:47.846Z,5.90
2018-01-07T03:53:16.133Z,6.00
2018-01-07T03:55:44.450Z,5.80
2018-01-07T03:58:11.976Z,5.80
2018-01-07T04:00:40.286Z,5.70
2018-01-07T04:03:07.805Z,5.70
2018-01-07T04:05:36.117Z,5.80
2018-01-07T04:08:03.647Z,5.80
2018-01-07T04:10:31.971Z,5.80
2018-01-07T04:12:59.496Z,5.80
2018-01-07T04:15:27.047Z,5.80
2018-01-07T04:17:55.335Z,5.70
2018-01-07T04:20:22.879Z,5.70
2018-01-07T04:22:51.170Z,5.70
2018-01-07T04:25:18.714Z,5.70
2018-01-07T04:27:47.002Z,5.60
2018-01-07T04:30:15.318Z,5.60
2018-01-07T04:32:42.859Z,5.60
2018-01-07T04:35:10.402Z,5.70
2018-01-07T04:37:37.930Z,5.70
2018-01-07T04:40:05.480Z,5.70
2018-01-07T04:42:33.006Z,5.70
2018-01-07T04:45:00.569Z,5.60
2018-01-07T04:47:28.097Z,5.60
2018-01-07T04:49:56.386Z,5.60
2018-01-07T04:52:23.925Z,5.60
2018-01-07T04:54:52.218Z,5.60
2018-01-07T04:57:19.762Z,5.60
2018-01-07T04:59:48.054Z,5.60
2018-01-07T05:02:15.609Z,5.60
2018-01-07T05:04:43.140Z,5.70
2018-01-07T05:07:10.695Z,5.60
2018-01-07T05:09:38.222Z,5.60
2018-01-07T05:12:05.768Z,5.60
2018-01-07T05:14:33.285Z,5.60
2018-01-07T05:17:01.598Z,5.50
2018-01-07T05:19:29.114Z,5.50
2018-01-07T05:21:56.661Z,5.50
2018-01-07T05:24:24.183Z,5.50
2018-01-07T05:26:51.730Z,5.50
2018-01-07T05:29:19.249Z,5.50
2018-01-07T05:31:46.798Z,5.50
2018-01-07T05:34:14.332Z,5.60
2018-01-07T05:36:41.880Z,5.50
2018-01-07T05:39:09.406Z,5.50
2018-01-07T05:41:37.728Z,5.70
2018-01-07T05:44:05.250Z,5.60
2018-01-07T05:46:33.571Z,5.70
2018-01-07T05:49:01.089Z,5.60
2018-01-07T05:51:28.626Z,5.60
2018-01-07T05:53:56.177Z,5.60
2018-01-07T05:56:23.698Z,5.70
2018-01-07T05:58:51.247Z,5.60
2018-01-07T06:01:18.767Z,5.60
2018-01-07T06:03:46.313Z,5.60
2018-01-07T06:06:13.867Z,5.60
2018-01-07T06:08:41.415Z,5.50
2018-01-07T06:11:08.944Z,5.60
2018-01-07T06:13:36.498Z,5.50
2018-01-07T06:16:04.022Z,5.50
2018-01-07T06:18:32.340Z,5.50
2018-01-07T06:20:59.862Z,5.50
2018-01-07T06:23:28.182Z,5.40
2018-01-07T06:25:55.702Z,5.40
2018-01-07T06:28:24.019Z,5.40
2018-01-07T06:51:34.223Z,5.20
2018-01-07T06:54:01.816Z,5.20
2018-01-07T06:56:29.351Z,5.30
2018-01-07T06:58:56.897Z,5.30
2018-01-07T07:01:24.423Z,5.40
2018-01-07T07:03:52.738Z,5.40
2018-01-07T07:06:20.258Z,5.40
2018-01-07T07:08:48.598Z,5.50
2018-01-07T07:11:16.125Z,5.50
2018-01-07T07:13:43.649Z,5.40
2018-01-07T07:16:11.966Z,5.40
2018-01-07T07:18:39.522Z,5.30
2018-01-07T07:21:07.835Z,5.40
2018-01-07T07:23:35.362Z,5.40
2018-01-07T07:26:02.913Z,5.40
2018-01-07T07:28:30.439Z,5.50
2018-01-07T07:30:58.750Z,5.40
2018-01-07T07:33:26.281Z,5.40
2018-01-07T07:35:54.602Z,5.50
2018-01-07T07:38:22.131Z,5.50
2018-01-07T07:40:49.683Z,5.50
2018-01-07T07:43:17.967Z,5.40
2018-01-07T07:45:45.518Z,5.40
2018-01-07T07:48:13.810Z,5.30
2018-01-07T07:50:41.366Z,5.30
2018-01-07T07:53:08.894Z,5.30
2018-01-07T07:55:36.446Z,5.30
2018-01-07T07:58:03.972Z,5.40
2018-01-07T08:00:31.522Z,5.30
2018-01-07T08:02:59.047Z,5.30
2018-01-07T08:05:27.364Z,5.30
2018-01-07T08:07:54.895Z,5.20
2018-01-07T08:10:22.446Z,5.30
2018-01-07T08:12:50.738Z,5.40
2018-01-07T08:15:18.285Z,5.40
2018-01-07T08:17:46.598Z,5.40
2018-01-07T08:20:14.118Z,5.40
2018-01-07T08:22:42.433Z,5.40
2018-01-07T08:25:09.958Z,5.40
2018-01-07T08:27:38.281Z,5.30
2018-01-07T08:30:05.813Z,5.20
2018-01-07T08:32:33.366Z,5.30
2018-01-07T08:35:00.990Z,5.30
2018-01-07T08:37:28.646Z,5.20
2018-01-07T08:39:56.172Z,5.20
2018-01-07T08:42:23.727Z,5.40
2018-01-07T08:44:51.255Z,5.40
2018-01-07T08:47:19.570Z,5.10
2018-01-07T08:49:47.108Z,5.10
2018-01-07T08:52:14.663Z,5.20
2018-01-07T08:54:42.195Z,5.10
2018-01-07T08:57:09.745Z,5.10
2018-01-07T08:59:37.271Z,5.10
2018-01-07T09:02:04.821Z,5.10
2018-01-07T09:04:32.349Z,5.10
2018-01-07T09:07:00.682Z,5.20
2018-01-07T09:09:28.263Z,5.20
2018-01-07T09:11:55.829Z,5.10
2018-01-07T09:14:23.414Z,5.10
2018-01-07T09:16:50.982Z,5.10
2018-01-07T09:19:18.536Z,5.10
2018-01-07T09:21:46.829Z,5.10
2018-01-07T09:24:14.375Z,5.10
2018-01-07T09:26:42.662Z,5.20
2018-01-07T09:29:10.206Z,5.20
2018-01-07T09:31:38.638Z,5.20
2018-01-07T09:34:06.191Z,5.20
2018-01-07T09:36:33.738Z,5.30
2018-01-07T09:39:01.311Z,5.10
2018-01-07T09:41:28.841Z,5.10
2018-01-07T09:43:56.391Z,5.10
2018-01-07T09:46:23.924Z,5.00
2018-01-07T09:48:51.470Z,5.00
2018-01-07T09:51:18.999Z,5.00
2018-01-07T09:53:46.554Z,5.10
2018-01-07T09:56:14.230Z,5.00
2018-01-07T09:58:41.779Z,5.00
2018-01-07T10:01:09.350Z,5.10
2018-01-07T10:03:36.940Z,5.10
2018-01-07T10:06:04.471Z,5.10
2018-01-07T10:08:32.185Z,5.20
2018-01-07T10:11:00.482Z,5.20
2018-01-07T10:13:28.006Z,5.20
2018-01-07T10:15:55.550Z,5.30
2018-01-07T10:18:23.077Z,5.20
2018-01-07T10:20:50.932Z,5.10
2018-01-07T10:23:18.466Z,5.10
2018-01-07T10:25:46.860Z,5.00
2018-01-07T10:28:14.386Z,5.00
2018-01-07T10:30:41.951Z,5.00
2018-01-07T10:33:09.478Z,5.10
2018-01-07T10:35:37.022Z,5.10
2018-01-07T10:38:04.730Z,5.10
2018-01-07T10:40:32.325Z,5.20
2018-01-07T10:42:59.851Z,5.20
2018-01-07T10:45:27.414Z,5.20
2018-01-07T10:47:54.938Z,5.20
2018-01-07T10:50:22.495Z,5.20
2018-01-07T10:52:50.030Z,5.20
2018-01-07T10:55:17.597Z,5.20
2018-01-07T10:57:45.146Z,5.20
2018-01-07T11:00:12.724Z,5.20
2018-01-07T11:02:40.262Z,5.40
2018-01-07T11:05:07.839Z,5.30
2018-01-07T11:07:35.371Z,5.20
2018-01-07T11:10:03.662Z,5.10
2018-01-07T11:12:31.960Z,5.10
2018-01-07T11:14:59.527Z,5.10
2018-01-07T11:17:27.083Z,5.20
2018-01-07T11:19:54.613Z,5.20
2018-01-07T11:22:22.166Z,5.30
2018-01-07T11:24:49.697Z,5.30
2018-01-07T11:27:17.242Z,5.30
2018-01-07T11:29:44.788Z,5.20
2018-01-07T11:32:12.344Z,5.30
2018-01-07T11:34:39.871Z,5.30
2018-01-07T11:37:07.422Z,5.30
2018-01-07T11:39:34.962Z,5.20
2018-01-07T11:42:03.283Z,5.10
2018-01-07T11:44:30.875Z,5.10
2018-01-07T11:46:58.422Z,5.20
2018-01-07T11:49:25.950Z,5.30
2018-01-07T11:51:53.516Z,5.20
2018-01-07T11:54:21.034Z,5.20
2018-01-07T11:56:48.583Z,5.10
2018-01-07T11:59:16.105Z,5.10
2018-01-07T12:01:43.667Z,5.10
2018-01-07T12:04:11.202Z,5.00
2018-01-07T12:06:38.758Z,5.10
2018-01-07T12:09:06.282Z,5.10
2018-01-07T12:11:33.810Z,5.00
2018-01-07T12:14:01.350Z,5.20
2018-01-07T12:16:28.879Z,5.30
2018-01-07T12:18:57.191Z,5.30
2018-01-07T12:21:24.733Z,5.30
2018-01-07T12:23:53.050Z,5.30
2018-01-07T12:26:20.571Z,5.30
2018-01-07T12:28:48.122Z,5.30
2018-01-07T12:31:16.410Z,5.30
2018-01-07T12:33:43.958Z,5.30
2018-01-07T12:36:12.255Z,5.30
2018-01-07T12:38:39.806Z,5.30
2018-01-07T12:41:07.335Z,5.40
2018-01-07T12:43:34.891Z,5.30
2018-01-07T12:46:02.418Z,5.30
2018-01-07T12:48:29.967Z,5.40
2018-01-07T12:50:57.502Z,5.50
2018-01-07T12:53:25.051Z,5.60
2018-01-07T12:55:53.339Z,5.70
2018-01-07T12:58:20.886Z,5.70
2018-01-07T13:00:49.174Z,5.60
2018-01-07T13:03:16.723Z,5.60
2018-01-07T13:05:45.054Z,5.50
2018-01-07T13:08:12.583Z,5.50
2018-01-07T13:10:40.134Z,5.40
2018-01-07T13:13:07.662Z,5.50
2018-01-07T13:15:35.206Z,5.40
2018-01-07T13:18:02.738Z,5.40
2018-01-07T13:20:30.296Z,5.40
2018-01-07T13:22:57.817Z,5.30
2018-01-07T13:25:26.134Z,5.50
2018-01-07T13:27:53.654Z,5.40
2018-01-07T13:30:21.968Z,5.50
2018-01-07T13:32:49.491Z,5.50
2018-01-07T13:35:17.813Z,5.40
2018-01-07T13:37:45.339Z,5.40
2018-01-07T13:40:12.890Z,5.30
2018-01-07T13:42:41.181Z,5.30
2018-01-07T13:45:08.726Z,5.30
2018-01-07T13:47:37.019Z,5.40
2018-01-07T13:50:04.574Z,5.40
2018-01-07T13:52:32.102Z,5.40
2018-01-07T13:54:59.658Z,5.30
2018-01-07T13:57:27.190Z,5.40
2018-01-07T13:59:54.740Z,5.40
2018-01-07T14:02:22.337Z,5.30
2018-01-07T14:04:49.897Z,5.30
2018-01-07T14:07:17.426Z,5.30
2018-01-07T14:09:44.951Z,5.20
2018-01-07T14:12:12.499Z,5.10
2018-01-07T14:14:40.786Z,5.20
2018-01-07T14:17:08.331Z,5.10
2018-01-07T14:19:35.881Z,5.30
2018-01-07T14:22:03.425Z,5.20
2018-01-07T14:24:30.953Z,5.30
2018-01-07T14:26:58.507Z,5.30
2018-01-07T14:29:26.040Z,5.40
2018-01-07T14:31:53.590Z,5.30
2018-01-07T14:34:21.881Z,5.30
2018-01-07T14:36:49.445Z,5.20
2018-01-07T14:39:16.975Z,5.30
2018-01-07T14:41:44.535Z,5.30
2018-01-07T14:44:12.840Z,5.40
2018-01-07T14:46:40.395Z,5.40
2018-01-07T14:49:08.673Z,5.20
2018-01-07T14:51:36.224Z,5.10
2018-01-07T14:54:04.511Z,5.10
2018-01-07T14:56:32.071Z,5.10
2018-01-07T14:58:59.598Z,5.20
2018-01-07T15:01:27.145Z,5.10
2018-01-07T15:03:54.683Z,5.10
2018-01-07T15:06:22.264Z,5.10
2018-01-07T15:08:49.803Z,5.20
2018-01-07T15:11:17.339Z,5.20
2018-01-07T15:13:44.901Z,5.20
2018-01-07T15:16:12.459Z,5.20
2018-01-07T15:18:40.110Z,5.20
2018-01-07T15:21:07.750Z,5.00
2018-01-07T15:23:36.293Z,5.00
2018-01-07T15:26:03.899Z,5.00
2018-01-07T15:28:32.221Z,5.00
2018-01-07T15:30:59.754Z,5.00
2018-01-07T15:33:27.658Z,5.10
2018-01-07T15:35:55.369Z,5.10
2018-01-07T15:38:23.906Z,5.00
2018-01-07T15:40:52.026Z,5.00
2018-01-07T15:43:19.661Z,4.90
2018-01-07T15:45:47.977Z,5.00
2018-01-07T15:48:15.534Z,5.00
2018-01-07T15:50:43.836Z,5.10
2018-01-07T15:53:11.388Z,5.10
2018-01-07T15:55:38.920Z,5.00
2018-01-07T15:58:07.245Z,5.10
2018-01-07T16:00:34.768Z,5.00
2018-01-07T16:03:02.318Z,5.00
2018-01-07T16:05:30.611Z,5.00
2018-01-07T16:07:58.158Z,5.00
2018-01-07T16:10:26.450Z,5.00
2018-01-07T16:12:53.974Z,4.90
2018-01-07T16:15:21.522Z,5.00
2018-01-07T16:17:49.211Z,5.00
2018-01-07T16:20:17.526Z,5.00
2018-01-07T16:22:45.062Z,5.00
2018-01-07T16:25:12.619Z,5.00
2018-01-07T16:27:40.150Z,5.00
2018-01-07T16:30:08.481Z,4.90
2018-01-07T16:32:36.011Z,4.80
2018-01-07T16:35:04.333Z,4.90
2018-01-07T16:37:31.850Z,4.90
2018-01-07T16:40:00.361Z,5.00
2018-01-07T16:42:27.915Z,5.00
2018-01-07T16:44:55.482Z,5.10
2018-01-07T16:47:23.326Z,5.00
2018-01-07T16:49:50.895Z,5.00
2018-01-07T16:52:19.186Z,5.00
2018-01-07T16:54:46.729Z,5.00
2018-01-07T16:57:14.250Z,4.90
2018-01-07T16:59:41.871Z,5.00
2018-01-07T17:02:12.150Z,4.90
2018-01-07T17:04:40.467Z,4.90
2018-01-07T17:07:08.130Z,4.90
2018-01-07T17:09:35.686Z,5.00
2018-01-07T17:12:03.237Z,5.00
2018-01-07T17:14:30.770Z,4.90
2018-01-07T17:16:59.089Z,4.80
2018-01-07T17:19:27.094Z,4.90
2018-01-07T17:21:54.951Z,5.00
2018-01-07T17:24:22.478Z,4.90
2018-01-07T17:26:50.709Z,5.00
2018-01-07T17:29:18.520Z,4.90
2018-01-07T17:31:46.086Z,4.90
2018-01-07T17:34:14.003Z,4.90
2018-01-07T17:36:41.816Z,4.90
2018-01-07T17:39:12.577Z,4.90
2018-01-07T17:41:40.274Z,4.90
2018-01-07T17:44:08.966Z,4.90
2018-01-07T17:46:37.281Z,5.00
2018-01-07T17:49:06.185Z,4.90
2018-01-07T17:51:33.925Z,5.00
2018-01-07T17:54:01.481Z,5.00
2018-01-07T17:56:29.030Z,4.90
2018-01-07T17:58:56.559Z,5.00
2018-01-07T18:01:24.355Z,4.90
2018-01-07T18:03:51.895Z,5.00
2018-01-07T18:06:19.481Z,4.90
2018-01-07T18:08:47.021Z,4.90
2018-01-07T18:11:15.350Z,4.90
2018-01-07T18:13:43.050Z,4.90
2018-01-07T18:16:10.578Z,4.80
2018-01-07T18:18:38.441Z,5.00
2018-01-07T18:21:05.971Z,5.00
2018-01-07T18:23:33.551Z,5.00
2018-01-07T18:26:01.079Z,5.00
2018-01-07T18:28:28.639Z,5.10
2018-01-07T18:30:56.365Z,5.00
2018-01-07T18:33:23.919Z,5.00
2018-01-07T18:35:51.456Z,4.90
2018-01-07T18:38:19.038Z,5.00
2018-01-07T18:40:46.567Z,5.00
2018-01-07T18:43:14.265Z,4.90
2018-01-07T18:45:41.818Z,4.90
2018-01-07T18:48:10.134Z,5.00
2018-01-07T18:50:38.423Z,5.00
2018-01-07T18:53:05.992Z,5.00
2018-01-07T18:55:33.514Z,5.00
2018-01-07T18:58:01.074Z,4.90
2018-01-07T19:00:28.603Z,4.90
2018-01-07T19:02:56.157Z,4.90
2018-01-07T19:05:23.700Z,4.90
2018-01-07T19:07:51.247Z,4.90
2018-01-07T19:10:18.775Z,4.90
2018-01-07T19:12:46.331Z,4.90
2018-01-07T19:15:13.850Z,4.90
2018-01-07T19:17:41.415Z,5.00
2018-01-07T19:20:08.963Z,5.00
2018-01-07T19:22:36.859Z,4.90
2018-01-07T19:25:06.174Z,4.90
2018-01-07T19:27:34.211Z,4.90
2018-01-07T19:30:02.182Z,4.90
2018-01-07T19:32:29.770Z,4.80
2018-01-07T19:34:57.321Z,4.70
2018-01-07T19:37:24.850Z,4.80
2018-01-07T19:39:52.403Z,4.80
2018-01-07T19:42:19.944Z,4.70
2018-01-07T19:44:47.518Z,4.70
2018-01-07T19:47:15.045Z,4.80
2018-01-07T19:49:43.358Z,4.60
2018-01-07T19:52:10.890Z,4.50
2018-01-07T19:54:39.218Z,4.50
2018-01-07T19:57:06.760Z,4.50
2018-01-07T19:59:34.317Z,4.60
2018-01-07T20:02:01.842Z,4.50
2018-01-07T20:04:30.160Z,4.60
2018-01-07T20:06:57.694Z,4.50
2018-01-07T20:09:25.256Z,4.60
2018-01-07T20:11:52.790Z,4.50
2018-01-07T20:14:21.125Z,4.60
2018-01-07T20:16:48.656Z,4.60
2018-01-07T20:19:16.192Z,4.60
2018-01-07T20:21:44.522Z,4.40
2018-01-07T20:24:12.045Z,4.40
2018-01-07T20:26:39.606Z,4.50
2018-01-07T20:29:07.134Z,4.60
2018-01-07T20:31:34.698Z,4.50
2018-01-07T20:34:02.259Z,4.50
2018-01-07T20:36:30.594Z,4.50
2018-01-07T20:38:58.134Z,4.50
2018-01-07T20:41:25.691Z,4.50
2018-01-07T20:43:53.222Z,4.50
2018-01-07T20:46:21.542Z,4.50
2018-01-07T20:48:49.079Z,4.50
2018-01-07T20:51:16.625Z,4.40
2018-01-07T20:53:44.922Z,4.40
2018-01-07T20:56:12.481Z,4.40
2018-01-07T20:58:40.016Z,4.30
2018-01-07T21:01:08.355Z,4.30
2018-01-07T21:03:35.893Z,4.30
2018-01-07T21:06:03.450Z,4.30
2018-01-07T21:08:40.938Z,4.20
2018-01-07T21:11:08.491Z,4.30
2018-01-07T21:13:36.023Z,4.30
2018-01-07T21:16:04.450Z,4.50
2018-01-07T21:18:31.981Z,4.50
2018-01-07T21:20:59.993Z,4.40
2018-01-07T21:23:28.334Z,4.40
2018-01-07T21:25:55.861Z,4.40
2018-01-07T21:28:23.426Z,4.40
2018-01-07T21:30:51.749Z,4.30
2018-01-07T21:33:19.299Z,4.30
2018-01-07T21:35:46.854Z,4.40
2018-01-07T21:38:14.428Z,4.30
2018-01-07T21:40:41.999Z,4.30
2018-01-07T21:43:09.571Z,4.30
2018-01-07T21:45:37.123Z,4.30
2018-01-07T21:48:04.686Z,4.30
2018-01-07T21:50:32.219Z,4.30
2018-01-07T21:52:59.855Z,4.30
2018-01-07T21:55:27.418Z,4.20
2018-01-07T21:57:55.746Z,4.30
2018-01-07T22:00:44.355Z,4.30
2018-01-07T22:03:24.722Z,4.30
2018-01-07T22:05:55.286Z,4.30
2018-01-07T22:08:23.075Z,4.40
2018-01-07T22:10:50.796Z,4.40
2018-01-07T22:13:18.443Z,4.40
2018-01-07T22:15:46.863Z,4.30
2018-01-07T22:18:14.410Z,4.30
2018-01-07T22:20:42.073Z,4.40
2018-01-07T22:23:09.806Z,4.40
2018-01-07T22:25:38.232Z,4.50
2018-01-07T22:28:05.786Z,4.40
2018-01-07T22:30:33.324Z,4.40
2018-01-07T22:33:01.489Z,4.30
2018-01-07T22:35:29.066Z,4.40
2018-01-07T22:37:56.741Z,4.40
2018-01-07T22:40:24.633Z,4.50
2018-01-07T22:42:52.570Z,4.40
2018-01-07T22:45:20.238Z,4.30
2018-01-07T22:47:53.504Z,4.40
2018-01-07T22:50:21.342Z,4.50
2018-01-07T22:52:49.018Z,4.40
2018-01-07T22:55:17.350Z,4.40
2018-01-07T22:57:44.879Z,4.40
2018-01-07T23:00:12.434Z,4.40
2018-01-07T23:02:39.970Z,4.40
2018-01-07T23:05:08.414Z,4.60
2018-01-07T23:07:35.967Z,4.50
2018-01-07T23:10:03.529Z,4.50
2018-01-07T23:12:31.059Z,4.40
2018-01-07T23:14:58.666Z,4.50
2018-01-07T23:17:26.195Z,4.60
2018-01-07T23:19:53.782Z,4.50
2018-01-07T23:22:21.377Z,4.50
2018-01-07T23:24:48.897Z,4.50
2018-01-07T23:27:16.570Z,4.50
2018-01-07T23:29:44.134Z,4.50
2018-01-07T23:32:11.740Z,4.50
2018-01-07T23:34:39.307Z,4.50
2018-01-07T23:37:06.867Z,4.50
2018-01-07T23:39:34.440Z,4.50
2018-01-07T23:42:02.022Z,4.40
2018-01-07T23:44:29.552Z,4.40
2018-01-07T23:46:57.112Z,4.40
2018-01-07T23:49:24.652Z,4.50
2018-01-07T23:51:52.202Z,4.50
2018-01-07T23:54:20.504Z,4.60
2018-01-07T23:56:48.055Z,4.60
2018-01-07T23:59:15.595Z,4.60
